Cape Dorset, Canada
Current Conditions -  °F | °C
As of 8:54 PM on Wednesday 22 Oct 2014 (Local Time) from CYTE Reporting Station
Light Snow Light Snow  
Wind Chill: 16°   Ceiling: 1200
Heat Index: 27°   Visibility: 5mi
Dew Point: 25°   Wind: 13mph
Humidity: 93%   Direction: 10°N
Pressure: 29.79"   Gusts: NA
Location:  64.23°N, 76.54°W
Report Text: CYTE 230054Z AUTO 01011KT 5SM -SN OVC012 M03/M04 A2979 RMK SLP093
Loading
Personal Weather Stations






























Interactive Weather Map
Tropical Storm Tracking
New forecast layout! Learn more

10-Day Weather Forecast

Advertisements
Track Severe Weather on mobile